地図

経路データ

SID SEASON NUMBER BASIN SUBBASIN NAME ISO_TIME NATURE LAT LON WMO_WIND WMO_PRES WMO_AGENCY TRACK_TYPE DIST2LAND LANDFALL IFLAG USA_AGENCY USA_ATCF_ID USA_LAT USA_LON USA_RECORD USA_STATUS USA_WIND USA_PRES USA_SSHS USA_R34_NE USA_R34_SE USA_R34_SW USA_R34_NW USA_R50_NE USA_R50_SE USA_R50_SW USA_R50_NW USA_R64_NE USA_R64_SE USA_R64_SW USA_R64_NW USA_POCI USA_ROCI USA_RMW USA_EYE TOKYO_LAT TOKYO_LON TOKYO_GRADE TOKYO_WIND TOKYO_PRES TOKYO_R50_DIR TOKYO_R50_LONG TOKYO_R50_SHORT TOKYO_R30_DIR TOKYO_R30_LONG TOKYO_R30_SHORT TOKYO_LAND CMA_LAT CMA_LON CMA_CAT CMA_WIND CMA_PRES HKO_LAT HKO_LON HKO_CAT HKO_WIND HKO_PRES NEWDELHI_LAT NEWDELHI_LON NEWDELHI_GRADE NEWDELHI_WIND NEWDELHI_PRES NEWDELHI_CI NEWDELHI_DP NEWDELHI_POCI REUNION_LAT REUNION_LON REUNION_TYPE REUNION_WIND REUNION_PRES REUNION_TNUM REUNION_CI REUNION_RMW REUNION_R34_NE REUNION_R34_SE REUNION_R34_SW REUNION_R34_NW REUNION_R50_NE REUNION_R50_SE REUNION_R50_SW REUNION_R50_NW REUNION_R64_NE REUNION_R64_SE REUNION_R64_SW REUNION_R64_NW BOM_LAT BOM_LON BOM_TYPE BOM_WIND BOM_PRES BOM_TNUM BOM_CI BOM_RMW BOM_R34_NE BOM_R34_SE BOM_R34_SW BOM_R34_NW BOM_R50_NE BOM_R50_SE BOM_R50_SW BOM_R50_NW BOM_R64_NE BOM_R64_SE BOM_R64_SW BOM_R64_NW BOM_ROCI BOM_POCI BOM_EYE BOM_POS_METHOD BOM_PRES_METHOD NADI_LAT NADI_LON NADI_CAT NADI_WIND NADI_PRES WELLINGTON_LAT WELLINGTON_LON WELLINGTON_WIND WELLINGTON_PRES DS824_LAT DS824_LON DS824_STAGE DS824_WIND DS824_PRES TD9636_LAT TD9636_LON TD9636_STAGE TD9636_WIND TD9636_PRES TD9635_LAT TD9635_LON TD9635_WIND TD9635_PRES TD9635_ROCI NEUMANN_LAT NEUMANN_LON NEUMANN_CLASS NEUMANN_WIND NEUMANN_PRES MLC_LAT MLC_LON MLC_CLASS MLC_WIND MLC_PRES USA_GUST BOM_GUST BOM_GUST_PER REUNION_GUST REUNION_GUST_PER USA_SEAHGT USA_SEARAD_NE USA_SEARAD_SE USA_SEARAD_SW USA_SEARAD_NW STORM_SPEED STORM_DIR
1967248N31282 1967 94 NA NA DORIA 1967-09-04 18:00:00 ET 31.0000 -78.0000 35 hurdat_atl main 259 259 O_____________ hurdat_atl AL141967 31.0000 -78.0000 EX 35 -4 0 0
1967248N31282 1967 94 NA NA DORIA 1967-09-04 21:00:00 ET 31.0000 -78.0050 main 259 259 P_____________ AL141967 31.0000 -78.0050 EX 35 -4 0 0
1967248N31282 1967 94 NA NA DORIA 1967-09-05 00:00:00 ET 31.0000 -78.0000 35 hurdat_atl main 259 259 O_____________ hurdat_atl AL141967 31.0000 -78.0000 EX 35 -4 0 0
1967248N31282 1967 94 NA NA DORIA 1967-09-05 03:00:00 ET 31.0000 -77.9725 main 259 259 P_____________ AL141967 31.0000 -77.9725 EX 35 -4 1 90
1967248N31282 1967 94 NA NA DORIA 1967-09-05 06:00:00 ET 31.0000 -77.9000 35 hurdat_atl main 264 264 O_____________ hurdat_atl AL141967 31.0000 -77.9000 EX 35 -4 2 90
1967248N31282 1967 94 NA NA DORIA 1967-09-05 09:00:00 ET 31.0000 -77.7800 main 269 269 P_____________ AL141967 31.0000 -77.7800 EX 35 -4 3 90
1967248N31282 1967 94 NA NA DORIA 1967-09-05 12:00:00 ET 31.0000 -77.6000 35 hurdat_atl main 280 280 O_____________ hurdat_atl AL141967 31.0000 -77.6000 EX 35 -4 4 90
1967248N31282 1967 94 NA NA DORIA 1967-09-05 15:00:00 ET 31.0001 -77.3575 main 291 291 P_____________ AL141967 31.0001 -77.3575 EX 37 -4 4 90
1967248N31282 1967 94 NA NA DORIA 1967-09-05 18:00:00 ET 31.0000 -77.1000 40 hurdat_atl main 310 310 O_____________ hurdat_atl AL141967 31.0000 -77.1000 EX 40 -4 4 89
1967248N31282 1967 94 NA NA DORIA 1967-09-05 21:00:00 ET 31.0075 -76.8775 main 324 324 P_____________ AL141967 31.0075 -76.8775 EX 40 -4 3 90
1967248N31282 1967 94 NA NA DORIA 1967-09-06 00:00:00 SS 31.0000 -76.7000 40 hurdat_atl main 338 338 O_____________ hurdat_atl AL141967 31.0000 -76.7000 SS 40 -2 3 99
1967248N31282 1967 94 NA NA DORIA 1967-09-06 03:00:00 SS 30.9650 -76.5775 main 345 345 P_____________ AL141967 30.9650 -76.5775 SS 40 -2 2 120
1967248N31282 1967 94 NA NA DORIA 1967-09-06 06:00:00 SS 30.9000 -76.5000 40 hurdat_atl main 359 359 O_____________ hurdat_atl AL141967 30.9000 -76.5000 SS 40 -2 2 141
1967248N31282 1967 94 NA NA DORIA 1967-09-06 09:00:00 SS 30.8075 -76.4350 main 374 374 P_____________ AL141967 30.8075 -76.4350 SS 37 -2 2 155
1967248N31282 1967 94 NA NA DORIA 1967-09-06 12:00:00 SS 30.7000 -76.4000 35 hurdat_atl main 381 381 O_____________ hurdat_atl AL141967 30.7000 -76.4000 SS 35 -2 2 167
1967248N31282 1967 94 NA NA DORIA 1967-09-06 15:00:00 SS 30.6075 -76.3925 main 389 389 P_____________ AL141967 30.6075 -76.3925 SS 35 -2 2 172
1967248N31282 1967 94 NA NA DORIA 1967-09-06 18:00:00 SS 30.5000 -76.4000 35 hurdat_atl main 397 397 O_____________ hurdat_atl AL141967 30.5000 -76.4000 SS 35 -2 3 182
1967248N31282 1967 94 NA NA DORIA 1967-09-06 21:00:00 SS 30.3575 -76.4000 main 405 405 P_____________ AL141967 30.3575 -76.4000 SS 35 -2 3 0
1967248N31282 1967 94 NA NA DORIA 1967-09-07 00:00:00 SS 30.2000 -76.4000 35 hurdat_atl main 421 421 O_____________ hurdat_atl AL141967 30.2000 -76.4000 SS 35 -2 3 175
1967248N31282 1967 94 NA NA DORIA 1967-09-07 03:00:00 SS 30.0650 -76.3849 main 430 427 P_____________ AL141967 30.0650 -76.3849 SS 35 -2 3 0
1967248N31282 1967 94 NA NA DORIA 1967-09-07 06:00:00 SS 29.9000 -76.4000 35 hurdat_atl main 427 410 O_____________ hurdat_atl AL141967 29.9000 -76.4000 SS 35 -2 4 189
1967248N31282 1967 94 NA NA DORIA 1967-09-07 09:00:00 SS 29.6725 -76.4699 main 410 392 P_____________ AL141967 29.6725 -76.4699 SS 32 -2 5 199
1967248N31282 1967 94 NA NA DORIA 1967-09-07 12:00:00 SS 29.4000 -76.6000 30 hurdat_atl main 392 366 O_____________ hurdat_atl AL141967 29.4000 -76.6000 SD 30 -2 6 205
1967248N31282 1967 94 NA NA DORIA 1967-09-07 15:00:00 SS 29.1000 -76.7775 main 366 342 P_____________ AL141967 29.1000 -76.7775 SD 30 -2 7 210
1967248N31282 1967 94 NA NA DORIA 1967-09-07 18:00:00 SS 28.8000 -77.0000 30 hurdat_atl main 342 322 O_____________ hurdat_atl AL141967 28.8000 -77.0000 SD 30 -2 7 216
1967248N31282 1967 94 NA NA DORIA 1967-09-07 21:00:00 SS 28.5350 -77.2424 main 322 292 P_____________ AL141967 28.5350 -77.2424 SD 30 -2 7 221
1967248N31282 1967 94 NA NA DORIA 1967-09-08 00:00:00 TS 28.3000 -77.5000 30 1007 hurdat_atl main 292 265 O_____________ hurdat_atl AL141967 28.3000 -77.5000 TD 30 1007 -1 6 224
1967248N31282 1967 94 NA NA DORIA 1967-09-08 03:00:00 TS 28.0700 -77.7500 main 256 230 P_____________ AL141967 28.0700 -77.7500 TD 30 1007 -1 6 228
1967248N31282 1967 94 NA NA DORIA 1967-09-08 06:00:00 TS 27.9000 -78.0000 30 hurdat_atl main 230 207 I_____________ hurdat_atl AL141967 27.9000 -78.0000 TD 30 1007 -1 5 242
1967248N31282 1967 94 NA NA DORIA 1967-09-08 09:00:00 TS 27.8275 -78.2573 main 198 180 P_____________ AL141967 27.8275 -78.2573 TD 30 1007 -1 5 257
1967248N31282 1967 94 NA NA DORIA 1967-09-08 12:00:00 TS 27.8000 -78.5000 30 1007 hurdat_atl main 180 162 O_____________ hurdat_atl AL141967 27.8000 -78.5000 TD 30 1007 -1 4 259
1967248N31282 1967 94 NA NA DORIA 1967-09-08 15:00:00 TS 27.7500 -78.7225 main 158 139 P_____________ AL141967 27.7500 -78.7225 TD 30 1007 -1 4 254
1967248N31282 1967 94 NA NA DORIA 1967-09-08 18:00:00 TS 27.7000 -78.9000 30 hurdat_atl main 139 126 I_____________ hurdat_atl AL141967 27.7000 -78.9000 TD 30 1007 -1 3 246
1967248N31282 1967 94 NA NA DORIA 1967-09-08 21:00:00 TS 27.6350 -79.0225 main 126 117 P_____________ AL141967 27.6350 -79.0225 TD 30 1007 -1 2 240
1967248N31282 1967 94 NA NA DORIA 1967-09-09 00:00:00 TS 27.6000 -79.1000 30 1007 hurdat_atl main 117 108 O_____________ hurdat_atl AL141967 27.6000 -79.1000 TD 30 1007 -1 1 267
1967248N31282 1967 94 NA NA DORIA 1967-09-09 03:00:00 TS 27.6275 -79.1724 main 108 108 P_____________ AL141967 27.6275 -79.1724 TD 32 1006 -1 1 320
1967248N31282 1967 94 NA NA DORIA 1967-09-09 06:00:00 TS 27.7000 -79.2000 35 hurdat_atl main 113 113 I_____________ hurdat_atl AL141967 27.7000 -79.2000 TS 35 1005 0 2 354
1967248N31282 1967 94 NA NA DORIA 1967-09-09 09:00:00 TS 27.7850 -79.1874 main 117 117 P_____________ AL141967 27.7850 -79.1874 TS 35 1004 0 2 25
1967248N31282 1967 94 NA NA DORIA 1967-09-09 12:00:00 TS 27.9000 -79.1000 35 1004 hurdat_atl main 130 130 O_____________ hurdat_atl AL141967 27.9000 -79.1000 TS 35 1004 0 3 45
1967248N31282 1967 94 NA NA DORIA 1967-09-09 15:00:00 TS 28.0050 -78.9372 main 153 153 P_____________ AL141967 28.0050 -78.9372 TS 37 1002 0 5 50
1967248N31282 1967 94 NA NA DORIA 1967-09-09 18:00:00 TS 28.2000 -78.7000 40 hurdat_atl main 179 179 I_____________ hurdat_atl AL141967 28.2000 -78.7000 TS 40 1000 0 7 40
1967248N31282 1967 94 NA NA DORIA 1967-09-09 21:00:00 TS 28.5324 -78.4370 main 204 204 P_____________ AL141967 28.5324 -78.4370 TS 45 998 0 10 33
1967248N31282 1967 94 NA NA DORIA 1967-09-10 00:00:00 TS 29.0000 -78.1000 50 997 hurdat_atl main 240 240 O_____________ hurdat_atl AL141967 29.0000 -78.1000 TS 50 997 0 12 33
1967248N31282 1967 94 NA NA DORIA 1967-09-10 03:00:00 TS 29.5399 -77.6869 main 293 293 P_____________ AL141967 29.5399 -77.6869 TS 55 0 14 33
1967248N31282 1967 94 NA NA DORIA 1967-09-10 06:00:00 TS 30.2000 -77.2000 60 hurdat_atl main 371 345 O_____________ hurdat_atl AL141967 30.2000 -77.2000 TS 60 0 17 32
1967248N31282 1967 94 NA NA DORIA 1967-09-10 09:00:00 TS 30.9851 -76.6578 main 338 293 P_____________ AL141967 30.9851 -76.6578 TS 62 0 19 31
1967248N31282 1967 94 NA NA DORIA 1967-09-10 12:00:00 TS 31.8000 -76.1000 65 hurdat_atl main 293 256 O_____________ hurdat_atl AL141967 31.8000 -76.1000 HU 65 1 18 29
1967248N31282 1967 94 NA NA DORIA 1967-09-10 15:00:00 TS 32.5442 -75.6286 main 259 211 P_____________ AL141967 32.5442 -75.6286 HU 67 1 16 31
1967248N31282 1967 94 NA NA DORIA 1967-09-10 18:00:00 TS 33.2000 -75.1000 70 984 hurdat_atl main 211 205 O_____________ hurdat_atl AL141967 33.2000 -75.1000 HU 70 984 1 16 41
1967248N31282 1967 94 NA NA DORIA 1967-09-10 21:00:00 TS 33.7376 -74.3869 main 219 219 P_____________ AL141967 33.7376 -74.3869 HU 70 985 1 16 51
1967248N31282 1967 94 NA NA DORIA 1967-09-11 00:00:00 TS 34.2000 -73.6000 70 987 hurdat_atl main 246 246 O_____________ hurdat_atl AL141967 34.2000 -73.6000 HU 70 987 1 16 54
1967248N31282 1967 94 NA NA DORIA 1967-09-11 03:00:00 TS 34.6647 -72.8418 main 273 273 P_____________ AL141967 34.6647 -72.8418 HU 65 990 1 15 54
1967248N31282 1967 94 NA NA DORIA 1967-09-11 06:00:00 TS 35.1000 -72.1000 60 hurdat_atl main 317 317 I_____________ hurdat_atl AL141967 35.1000 -72.1000 TS 60 993 0 15 53
1967248N31282 1967 94 NA NA DORIA 1967-09-11 09:00:00 TS 35.5443 -71.3999 main 371 370 P_____________ AL141967 35.5443 -71.3999 TS 57 996 0 14 55
1967248N31282 1967 94 NA NA DORIA 1967-09-11 12:00:00 TS 35.9000 -70.7000 55 999 hurdat_atl main 431 431 O_____________ hurdat_atl AL141967 35.9000 -70.7000 TS 55 999 0 13 65
1967248N31282 1967 94 NA NA DORIA 1967-09-11 15:00:00 TS 36.1023 -69.9492 main 503 503 P_____________ AL141967 36.1023 -69.9492 TS 55 998 0 12 76
1967248N31282 1967 94 NA NA DORIA 1967-09-11 18:00:00 TS 36.2000 -69.2000 55 998 hurdat_atl main 567 567 O_____________ hurdat_atl AL141967 36.2000 -69.2000 TS 55 998 0 12 83
1967248N31282 1967 94 NA NA DORIA 1967-09-11 21:00:00 TS 36.2572 -68.4768 main 609 609 P_____________ AL141967 36.2572 -68.4768 TS 55 0 11 85
1967248N31282 1967 94 NA NA DORIA 1967-09-12 00:00:00 TS 36.3000 -67.8000 55 hurdat_atl main 630 630 O_____________ hurdat_atl AL141967 36.3000 -67.8000 TS 55 0 11 82
1967248N31282 1967 94 NA NA DORIA 1967-09-12 03:00:00 TS 36.3998 -67.1627 main 637 637 P_____________ AL141967 36.3998 -67.1627 TS 55 0 10 78
1967248N31282 1967 94 NA NA DORIA 1967-09-12 06:00:00 TS 36.5000 -66.6000 55 hurdat_atl main 648 648 O_____________ hurdat_atl AL141967 36.5000 -66.6000 TS 55 0 9 80
1967248N31282 1967 94 NA NA DORIA 1967-09-12 09:00:00 TS 36.5573 -66.1048 main 659 659 P_____________ AL141967 36.5573 -66.1048 TS 57 0 7 82
1967248N31282 1967 94 NA NA DORIA 1967-09-12 12:00:00 TS 36.6000 -65.7000 60 hurdat_atl main 677 677 O_____________ hurdat_atl AL141967 36.6000 -65.7000 TS 60 0 6 81
1967248N31282 1967 94 NA NA DORIA 1967-09-12 15:00:00 TS 36.6499 -65.3475 main 696 687 P_____________ AL141967 36.6499 -65.3475 TS 62 0 5 78
1967248N31282 1967 94 NA NA DORIA 1967-09-12 18:00:00 TS 36.7000 -65.1000 65 hurdat_atl main 697 697 O_____________ hurdat_atl AL141967 36.7000 -65.1000 HU 65 1 3 72
1967248N31282 1967 94 NA NA DORIA 1967-09-12 21:00:00 TS 36.7499 -64.9624 main 702 693 P_____________ AL141967 36.7499 -64.9624 HU 67 1 2 57
1967248N31282 1967 94 NA NA DORIA 1967-09-13 00:00:00 TS 36.8000 -64.9000 70 989 hurdat_atl main 699 699 O_____________ hurdat_atl AL141967 36.8000 -64.9000 HU 70 989 1 1 45
1967248N31282 1967 94 NA NA DORIA 1967-09-13 03:00:00 TS 36.8500 -64.8350 main 704 695 P_____________ AL141967 36.8500 -64.8350 HU 70 1 1 37
1967248N31282 1967 94 NA NA DORIA 1967-09-13 06:00:00 TS 36.9000 -64.8000 70 hurdat_atl main 695 695 O_____________ hurdat_atl AL141967 36.9000 -64.8000 HU 70 1 1 17
1967248N31282 1967 94 NA NA DORIA 1967-09-13 09:00:00 TS 36.9500 -64.7850 main 687 687 P_____________ AL141967 36.9500 -64.7850 HU 72 1 1 0
1967248N31282 1967 94 NA NA DORIA 1967-09-13 12:00:00 TS 37.0000 -64.8000 75 hurdat_atl main 687 687 O_____________ hurdat_atl AL141967 37.0000 -64.8000 HU 75 1 1 343
1967248N31282 1967 94 NA NA DORIA 1967-09-13 15:00:00 TS 37.0425 -64.8276 main 687 672 P_____________ AL141967 37.0425 -64.8276 HU 75 1 1 323
1967248N31282 1967 94 NA NA DORIA 1967-09-13 18:00:00 TS 37.1000 -64.9000 75 983 hurdat_atl main 672 658 O_____________ hurdat_atl AL141967 37.1000 -64.9000 HU 75 983 1 2 312
1967248N31282 1967 94 NA NA DORIA 1967-09-13 21:00:00 TS 37.1850 -65.0275 main 658 638 P_____________ AL141967 37.1850 -65.0275 HU 77 1 3 310
1967248N31282 1967 94 NA NA DORIA 1967-09-14 00:00:00 TS 37.3000 -65.2000 80 hurdat_atl main 638 619 O_____________ hurdat_atl AL141967 37.3000 -65.2000 HU 80 1 4 312
1967248N31282 1967 94 NA NA DORIA 1967-09-14 03:00:00 TS 37.4500 -65.3924 main 610 590 P_____________ AL141967 37.4500 -65.3924 HU 80 1 4 314
1967248N31282 1967 94 NA NA DORIA 1967-09-14 06:00:00 TS 37.6000 -65.6000 80 hurdat_atl main 590 571 O_____________ hurdat_atl AL141967 37.6000 -65.6000 HU 80 1 4 309
1967248N31282 1967 94 NA NA DORIA 1967-09-14 09:00:00 TS 37.7074 -65.7926 main 571 551 P_____________ AL141967 37.7074 -65.7926 HU 80 1 4 302
1967248N31282 1967 94 NA NA DORIA 1967-09-14 12:00:00 TS 37.8000 -66.0000 80 hurdat_atl main 551 532 O_____________ hurdat_atl AL141967 37.8000 -66.0000 HU 80 1 4 301
1967248N31282 1967 94 NA NA DORIA 1967-09-14 15:00:00 TS 37.9149 -66.2349 main 532 508 P_____________ AL141967 37.9149 -66.2349 HU 82 1 4 297
1967248N31282 1967 94 NA NA DORIA 1967-09-14 18:00:00 TS 38.0000 -66.5000 85 973 hurdat_atl main 508 493 O_____________ hurdat_atl AL141967 38.0000 -66.5000 HU 85 973 2 4 283
1967248N31282 1967 94 NA NA DORIA 1967-09-14 21:00:00 TS 38.0149 -66.7852 main 493 480 P_____________ AL141967 38.0149 -66.7852 HU 85 2 5 270
1967248N31282 1967 94 NA NA DORIA 1967-09-15 00:00:00 TS 38.0000 -67.1000 85 hurdat_atl main 480 467 O_____________ hurdat_atl AL141967 38.0000 -67.1000 HU 85 2 5 268
1967248N31282 1967 94 NA NA DORIA 1967-09-15 03:00:00 TS 37.9996 -67.4125 main 467 452 P_____________ AL141967 37.9996 -67.4125 HU 85 2 6 270
1967248N31282 1967 94 NA NA DORIA 1967-09-15 06:00:00 TS 38.0000 -67.8000 85 hurdat_atl main 452 436 O_____________ hurdat_atl AL141967 38.0000 -67.8000 HU 85 2 7 271
1967248N31282 1967 94 NA NA DORIA 1967-09-15 09:00:00 TS 38.0070 -68.2823 main 436 418 P_____________ AL141967 38.0070 -68.2823 HU 82 1 9 270
1967248N31282 1967 94 NA NA DORIA 1967-09-15 12:00:00 TS 38.0000 -68.9000 80 hurdat_atl main 418 400 O_____________ hurdat_atl AL141967 38.0000 -68.9000 HU 80 1 11 267
1967248N31282 1967 94 NA NA DORIA 1967-09-15 15:00:00 TS 37.9504 -69.6779 main 398 369 P_____________ AL141967 37.9504 -69.6779 HU 80 1 13 265
1967248N31282 1967 94 NA NA DORIA 1967-09-15 18:00:00 TS 37.9000 -70.5000 80 975 hurdat_atl main 369 321 O_____________ hurdat_atl AL141967 37.9000 -70.5000 HU 80 975 1 12 267
1967248N31282 1967 94 NA NA DORIA 1967-09-15 21:00:00 TS 37.8918 -71.2148 main 321 273 P_____________ AL141967 37.8918 -71.2148 HU 77 978 1 11 270
1967248N31282 1967 94 NA NA DORIA 1967-09-16 00:00:00 TS 37.9000 -71.9000 75 981 hurdat_atl main 273 222 O_____________ hurdat_atl AL141967 37.9000 -71.9000 HU 75 981 1 11 271
1967248N31282 1967 94 NA NA DORIA 1967-09-16 03:00:00 TS 37.9148 -72.6146 main 222 163 P_____________ AL141967 37.9148 -72.6146 HU 72 983 1 11 270
1967248N31282 1967 94 NA NA DORIA 1967-09-16 06:00:00 TS 37.9000 -73.3000 70 986 hurdat_atl main 163 118 O_____________ hurdat_atl AL141967 37.9000 -73.3000 HU 70 986 1 11 265
1967248N31282 1967 94 NA NA DORIA 1967-09-16 09:00:00 TS 37.8298 -73.9450 main 118 82 P_____________ AL141967 37.8298 -73.9450 HU 67 987 1 10 258
1967248N31282 1967 94 NA NA DORIA 1967-09-16 12:00:00 TS 37.7000 -74.5000 65 hurdat_atl main 82 57 I_____________ hurdat_atl AL141967 37.7000 -74.5000 HU 65 988 1 8 250
1967248N31282 1967 94 NA NA DORIA 1967-09-16 15:00:00 TS 37.5446 -74.9446 main 62 41 P_____________ AL141967 37.5446 -74.9446 HU 62 989 0 7 238
1967248N31282 1967 94 NA NA DORIA 1967-09-16 18:00:00 TS 37.3000 -75.3000 60 990 hurdat_atl main 41 28 O_____________ hurdat_atl AL141967 37.3000 -75.3000 TS 60 990 0 8 222
1967248N31282 1967 94 NA NA DORIA 1967-09-16 21:00:00 TS 36.9374 -75.6377 main 34 0 P_____________ AL141967 36.9374 -75.6377 TS 55 0 9 211
1967248N31282 1967 94 NA NA DORIA 1967-09-17 00:00:00 TS 36.5000 -75.9000 50 hurdat_atl main 0 0 O_____________ hurdat_atl AL141967 36.5000 -75.9000 L TS 50 0 10 202
1967248N31282 1967 94 NA NA DORIA 1967-09-17 03:00:00 TS 36.0574 -76.0873 main 0 0 P_____________ AL141967 36.0574 -76.0873 TS 45 0 9 195
1967248N31282 1967 94 NA NA DORIA 1967-09-17 06:00:00 TS 35.6000 -76.2000 40 hurdat_atl main 0 0 O_____________ hurdat_atl AL141967 35.6000 -76.2000 TS 40 0 9 190
1967248N31282 1967 94 NA NA DORIA 1967-09-17 09:00:00 TS 35.1500 -76.2799 main 21 0 P_____________ AL141967 35.1500 -76.2799 TS 35 0 9 185
1967248N31282 1967 94 NA NA DORIA 1967-09-17 12:00:00 TS 34.7000 -76.3000 30 1006 hurdat_atl main 18 18 O_____________ hurdat_atl AL141967 34.7000 -76.3000 TD 30 1006 -1 9 179
1967248N31282 1967 94 NA NA DORIA 1967-09-17 15:00:00 TS 34.2350 -76.2724 main 58 58 P_____________ AL141967 34.2350 -76.2724 TD 30 1006 -1 9 175
1967248N31282 1967 94 NA NA DORIA 1967-09-17 18:00:00 TS 33.8000 -76.2000 30 hurdat_atl main 104 104 I_____________ hurdat_atl AL141967 33.8000 -76.2000 TD 30 1006 -1 8 171
1967248N31282 1967 94 NA NA DORIA 1967-09-17 21:00:00 TS 33.4350 -76.1227 main 149 149 P_____________ AL141967 33.4350 -76.1227 TD 30 1006 -1 7 167
1967248N31282 1967 94 NA NA DORIA 1967-09-18 00:00:00 TS 33.1000 -76.0000 30 1006 hurdat_atl main 184 184 O_____________ hurdat_atl AL141967 33.1000 -76.0000 TD 30 1006 -1 7 161
1967248N31282 1967 94 NA NA DORIA 1967-09-18 03:00:00 TS 32.7349 -75.8300 main 232 232 P_____________ AL141967 32.7349 -75.8300 TD 30 1006 -1 8 154
1967248N31282 1967 94 NA NA DORIA 1967-09-18 06:00:00 TS 32.4000 -75.6000 30 hurdat_atl main 269 269 I_____________ hurdat_atl AL141967 32.4000 -75.6000 TD 30 1006 -1 8 144
1967248N31282 1967 94 NA NA DORIA 1967-09-18 09:00:00 TS 32.1276 -75.3075 main 310 310 P_____________ AL141967 32.1276 -75.3075 TD 30 1006 -1 7 135
1967248N31282 1967 94 NA NA DORIA 1967-09-18 12:00:00 TS 31.9000 -75.0000 30 1006 hurdat_atl main 341 341 O_____________ hurdat_atl AL141967 31.9000 -75.0000 TD 30 1006 -1 6 132
1967248N31282 1967 94 NA NA DORIA 1967-09-18 15:00:00 TS 31.6999 -74.7428 main 373 373 P_____________ AL141967 31.6999 -74.7428 TD 30 1006 -1 6 133
1967248N31282 1967 94 NA NA DORIA 1967-09-18 18:00:00 TS 31.5000 -74.5000 30 1006 hurdat_atl main 402 402 O_____________ hurdat_atl AL141967 31.5000 -74.5000 TD 30 1006 -1 6 136
1967248N31282 1967 94 NA NA DORIA 1967-09-18 21:00:00 TS 31.2575 -74.2501 main 430 430 P_____________ AL141967 31.2575 -74.2501 TD 27 -1 7 139
1967248N31282 1967 94 NA NA DORIA 1967-09-19 00:00:00 MX 31.0000 -74.0000 25 hurdat_atl main 473 473 O_____________ hurdat_atl AL141967 31.0000 -74.0000 LO 25 -3 7 140
1967248N31282 1967 94 NA NA DORIA 1967-09-19 03:00:00 MX 30.7500 -73.7501 main 512 512 P_____________ AL141967 30.7500 -73.7501 LO 25 -3 7 139
1967248N31282 1967 94 NA NA DORIA 1967-09-19 06:00:00 MX 30.5000 -73.5000 25 hurdat_atl main 545 545 O_____________ hurdat_atl AL141967 30.5000 -73.5000 LO 25 -3 7 141
1967248N31282 1967 94 NA NA DORIA 1967-09-19 09:00:00 MX 30.2349 -73.2651 main 584 584 P_____________ AL141967 30.2349 -73.2651 LO 25 -3 7 139
1967248N31282 1967 94 NA NA DORIA 1967-09-19 12:00:00 MX 30.0000 -73.0000 25 hurdat_atl main 618 618 O_____________ hurdat_atl AL141967 30.0000 -73.0000 LO 25 -3 7 128
1967248N31282 1967 94 NA NA DORIA 1967-09-19 15:00:00 MX 29.8275 -72.6726 main 652 652 P_____________ AL141967 29.8275 -72.6726 LO 25 -3 7 116
1967248N31282 1967 94 NA NA DORIA 1967-09-19 18:00:00 MX 29.7000 -72.3000 25 hurdat_atl main 682 682 O_____________ hurdat_atl AL141967 29.7000 -72.3000 LO 25 -3 7 110
1967248N31282 1967 94 NA NA DORIA 1967-09-19 21:00:00 MX 29.5775 -71.9000 main 714 714 P_____________ AL141967 29.5775 -71.9000 LO 25 -3 7 106
1967248N31282 1967 94 NA NA DORIA 1967-09-20 00:00:00 MX 29.5000 -71.5000 25 1010 hurdat_atl main 746 746 O_____________ hurdat_atl AL141967 29.5000 -71.5000 LO 25 1010 -3 7 98
1967248N31282 1967 94 NA NA DORIA 1967-09-20 03:00:00 MX 29.4848 -71.1502 main 764 764 P_____________ AL141967 29.4848 -71.1502 LO 25 -3 6 90
1967248N31282 1967 94 NA NA DORIA 1967-09-20 06:00:00 MX 29.5000 -70.8000 25 hurdat_atl main 789 789 O_____________ hurdat_atl AL141967 29.5000 -70.8000 LO 25 -3 7 89
1967248N31282 1967 94 NA NA DORIA 1967-09-20 09:00:00 MX 29.5001 -70.3850 main 815 815 P_____________ AL141967 29.5001 -70.3850 LO 25 -3 7 90
1967248N31282 1967 94 NA NA DORIA 1967-09-20 12:00:00 MX 29.5000 -70.0000 25 hurdat_atl main 842 842 O_____________ hurdat_atl AL141967 29.5000 -70.0000 LO 25 -3 6 90
1967248N31282 1967 94 NA NA DORIA 1967-09-20 15:00:00 MX 29.4998 -69.7275 main 862 862 P_____________ AL141967 29.4998 -69.7275 LO 25 -3 4 90
1967248N31282 1967 94 NA NA DORIA 1967-09-20 18:00:00 MX 29.5000 -69.5000 25 hurdat_atl main 876 876 O_____________ hurdat_atl AL141967 29.5000 -69.5000 LO 25 -3 4 90
1967248N31282 1967 94 NA NA DORIA 1967-09-20 21:00:00 MX 29.5000 -69.2500 main 898 891 P_____________ AL141967 29.5000 -69.2500 LO 25 -3 4 90
1967248N31282 1967 94 NA NA DORIA 1967-09-21 00:00:00 MX 29.5000 -69.0000 25 hurdat_atl main 912 912 O_____________ hurdat_atl AL141967 29.5000 -69.0000 LO 25 -3 4 90
1967248N31282 1967 94 NA NA DORIA 1967-09-21 03:00:00 MX 29.5000 -68.7500 main 933 926 P_____________ AL141967 29.5000 -68.7500 LO 25 -3 4 90
1967248N31282 1967 94 NA NA DORIA 1967-09-21 06:00:00 MX 29.5000 -68.5000 25 hurdat_atl main 947 947 O_____________ hurdat_atl AL141967 29.5000 -68.5000 LO 25 -3 4 90
1967248N31282 1967 94 NA NA DORIA 1967-09-21 09:00:00 MX 29.5001 -68.2500 main 969 962 P_____________ AL141967 29.5001 -68.2500 LO 25 -3 4 90
1967248N31282 1967 94 NA NA DORIA 1967-09-21 12:00:00 MX 29.5000 -68.0000 25 hurdat_atl main 984 O_____________ hurdat_atl AL141967 29.5000 -68.0000 LO 25 -3 4 90

IBTrACS Databaseについて

本データベースは、米国NOAAが公開する1842年以降の世界の熱帯低気圧のベストトラックデータアーカイブInternational Best Track Archive for Climate Stewardship (IBTrACS)を、ウェブで閲覧しやすい形式に変換したものです。

最終更新日:2022-11-16